Time;durP1;ratioP1;P1;durP2;ratioP2;P2;SDS_P1;SDS_P2;PMS_P1;PMS_P2;Temp;Humidity;BMP_temperature;BMP_pressure;BME280_temperature;BME280_humidity;BME280_pressure;Samples;Min_cycle;Max_cycle;Signal;HPM_P1;HPM_P2
2021/03/18 00:01:40;;;;;;;6.57;4.47;;;1.10;85.60;;;;;;4952661;28;20253;-83
2021/03/18 00:04:10;;;;;;;6.90;4.47;;;1.10;85.80;;;;;;4942179;29;20202;-83
2021/03/18 00:06:40;;;;;;;5.80;4.93;;;1.10;85.70;;;;;;4907622;29;20208;-80
2021/03/18 00:09:13;;;;;;;9.03;5.33;;;1.10;85.80;;;;;;4949779;29;20308;-82
2021/03/18 00:11:43;;;;;;;8.47;5.13;;;1.00;85.80;;;;;;4957120;28;20470;-81
2021/03/18 00:14:13;;;;;;;8.67;4.97;;;1.00;86.10;;;;;;4949297;28;20217;-82
2021/03/18 00:16:41;;;;;;;5.00;3.90;;;0.90;86.30;;;;;;4920428;28;20262;-82
2021/03/18 00:19:10;;;;;;;7.20;4.60;;;0.80;86.60;;;;;;4953780;29;20510;-82
2021/03/18 00:21:37;;;;;;;7.17;5.00;;;0.80;87.10;;;;;;4950597;29;20220;-82
2021/03/18 00:24:07;;;;;;;7.13;4.37;;;0.70;87.10;;;;;;4955461;28;20271;-83
2021/03/18 00:26:38;;;;;;;10.27;4.90;;;0.70;87.60;;;;;;4902379;29;20397;-83
2021/03/18 00:29:07;;;;;;;8.53;5.30;;;0.60;87.80;;;;;;4930698;29;20216;-81
2021/03/18 00:31:57;;;;;;;5.43;3.33;;;0.60;88.00;;;;;;4942799;29;20248;-82
2021/03/18 00:34:25;;;;;;;7.23;5.07;;;0.50;88.70;;;;;;4927243;28;20224;-84
2021/03/18 00:36:53;;;;;;;7.67;4.67;;;0.50;88.80;;;;;;4923472;28;20323;-85
2021/03/18 00:39:21;;;;;;;9.27;5.10;;;0.40;89.20;;;;;;4959314;28;20212;-82
2021/03/18 00:41:49;;;;;;;9.60;5.50;;;0.40;89.40;;;;;;4936550;28;20773;-83
2021/03/18 00:44:19;;;;;;;7.37;5.43;;;0.40;90.00;;;;;;4924817;28;20263;-83
2021/03/18 00:46:49;;;;;;;7.33;4.87;;;0.40;90.10;;;;;;4919872;28;20226;-83
2021/03/18 00:49:18;;;;;;;6.67;4.83;;;0.30;90.10;;;;;;4948718;28;20246;-82
2021/03/18 00:51:46;;;;;;;6.50;4.53;;;0.30;90.40;;;;;;4936038;28;20211;-82
2021/03/18 00:54:14;;;;;;;8.27;5.07;;;0.30;90.70;;;;;;4932192;28;20220;-84
2021/03/18 00:56:42;;;;;;;10.00;5.30;;;0.20;90.80;;;;;;4901725;29;20228;-83
2021/03/18 00:59:10;;;;;;;8.87;5.47;;;0.20;91.00;;;;;;4942823;28;20400;-81
2021/03/18 01:01:38;;;;;;;6.83;4.83;;;0.20;90.90;;;;;;4936885;28;20228;-81
2021/03/18 01:04:06;;;;;;;8.30;5.30;;;0.20;91.00;;;;;;4935754;28;20212;-83
2021/03/18 01:06:37;;;;;;;7.70;5.13;;;0.10;91.20;;;;;;4907668;28;20229;-83
2021/03/18 01:09:06;;;;;;;7.23;4.63;;;0.00;91.40;;;;;;4936849;28;20212;-81
2021/03/18 01:11:36;;;;;;;10.17;5.70;;;0.00;91.90;;;;;;4945374;29;20260;-83
2021/03/18 01:14:06;;;;;;;9.50;5.70;;;0.10;91.90;;;;;;4948957;28;20217;-82
2021/03/18 01:16:38;;;;;;;8.93;5.13;;;0.10;91.60;;;;;;4906536;29;20227;-83
2021/03/18 01:19:08;;;;;;;11.27;5.67;;;0.10;91.90;;;;;;4948258;28;20538;-82
2021/03/18 01:21:39;;;;;;;12.13;6.07;;;0.00;91.70;;;;;;4953248;28;20204;-83
2021/03/18 01:24:10;;;;;;;8.10;5.77;;;0.10;92.10;;;;;;4949767;28;20511;-81
2021/03/18 01:26:37;;;;;;;9.43;5.80;;;0.10;92.00;;;;;;4909902;28;20758;-82
2021/03/18 01:29:06;;;;;;;9.60;5.70;;;0.00;92.20;;;;;;4946562;28;20678;-81
2021/03/18 01:31:34;;;;;;;8.80;5.63;;;0.00;92.70;;;;;;4943982;28;20231;-82
2021/03/18 01:34:04;;;;;;;10.80;6.60;;;-0.10;93.10;;;;;;4947014;28;20202;-82
2021/03/18 01:36:34;;;;;;;13.20;6.77;;;0.00;93.30;;;;;;4901542;29;20230;-81
2021/03/18 01:39:04;;;;;;;8.93;6.20;;;0.00;93.10;;;;;;4961759;28;20216;-81
2021/03/18 01:41:32;;;;;;;10.00;6.33;;;-0.10;93.20;;;;;;4953388;28;20227;-81
2021/03/18 01:44:00;;;;;;;8.30;5.53;;;-0.10;93.40;;;;;;4951406;28;20258;-81
2021/03/18 01:46:27;;;;;;;11.17;5.90;;;-0.10;93.60;;;;;;4906502;28;20238;-82
2021/03/18 01:48:55;;;;;;;10.53;6.13;;;-0.20;93.60;;;;;;4940387;28;20606;-81
2021/03/18 01:51:23;;;;;;;8.87;5.73;;;-0.30;93.90;;;;;;4940618;28;20612;-83
2021/03/18 01:53:51;;;;;;;9.83;5.30;;;-0.30;94.70;;;;;;4950766;28;20256;-82
2021/03/18 01:56:20;;;;;;;9.07;5.90;;;-0.30;94.80;;;;;;4906150;28;21231;-82
2021/03/18 01:58:48;;;;;;;7.80;5.50;;;-0.30;95.50;;;;;;4956228;28;20488;-82
2021/03/18 02:01:18;;;;;;;9.73;6.20;;;-0.20;95.60;;;;;;4961314;28;20218;-81
2021/03/18 02:03:47;;;;;;;9.63;6.40;;;-0.10;95.10;;;;;;4957026;28;20510;-82
2021/03/18 02:06:16;;;;;;;8.60;6.23;;;0.00;94.90;;;;;;4923513;28;20232;-82
2021/03/18 02:08:44;;;;;;;8.83;5.93;;;-0.10;94.50;;;;;;4955520;28;20188;-82
2021/03/18 02:11:11;;;;;;;9.30;5.80;;;-0.10;94.60;;;;;;4956407;29;20218;-85
2021/03/18 02:13:40;;;;;;;11.33;6.07;;;-0.10;94.70;;;;;;4954874;29;20271;-84
2021/03/18 02:16:11;;;;;;;9.47;6.40;;;-0.10;94.60;;;;;;4917085;28;20224;-83
2021/03/18 02:18:48;;;;;;;7.93;4.53;;;-0.20;94.10;;;;;;4955919;28;20196;-83
2021/03/18 02:22:07;;;;;;;10.37;6.10;;;-0.30;94.90;;;;;;4957370;28;20784;-83
2021/03/18 02:24:42;;;;;;;9.10;5.47;;;-0.20;95.40;;;;;;4909659;28;20758;-83
2021/03/18 02:27:52;;;;;;;10.60;6.07;;;-0.20;95.00;;;;;;4937725;28;20215;-83
2021/03/18 02:30:56;;;;;;;12.40;6.97;;;-0.10;95.00;;;;;;4956588;28;20438;-83
2021/03/18 02:34:10;;;;;;;11.70;6.57;;;-0.20;94.40;;;;;;4949814;28;20315;-81
2021/03/18 02:36:44;;;;;;;10.53;6.60;;;-0.20;94.60;;;;;;4928834;28;20237;-81
2021/03/18 02:39:16;;;;;;;9.27;6.77;;;-0.20;94.70;;;;;;4958099;28;20265;-82
2021/03/18 02:41:48;;;;;;;8.73;6.23;;;-0.30;94.80;;;;;;4957482;28;20219;-83
2021/03/18 02:44:24;;;;;;;14.00;7.33;;;-0.30;95.70;;;;;;4949395;28;20190;-82
2021/03/18 02:46:59;;;;;;;8.00;5.53;;;-0.30;95.70;;;;;;4927787;28;20212;-83
2021/03/18 02:49:28;;;;;;;11.00;6.80;;;-0.20;95.50;;;;;;4957171;28;20265;-82
2021/03/18 02:52:02;;;;;;;9.63;5.97;;;-0.20;94.90;;;;;;4942343;28;20206;-83
2021/03/18 02:54:31;;;;;;;11.80;7.20;;;-0.40;94.70;;;;;;4942634;28;20927;-82
2021/03/18 02:57:02;;;;;;;11.00;6.90;;;-0.40;95.50;;;;;;4938426;28;20226;-82
2021/03/18 02:59:33;;;;;;;11.93;7.87;;;-0.40;96.10;;;;;;4959069;28;20250;-82
2021/03/18 03:02:04;;;;;;;12.27;8.53;;;-0.40;96.10;;;;;;4961048;28;20531;-82
2021/03/18 03:04:37;;;;;;;17.17;8.83;;;-0.30;97.20;;;;;;4948058;28;20332;-83
2021/03/18 03:07:06;;;;;;;14.57;8.70;;;-0.30;96.70;;;;;;4939142;28;20217;-82
2021/03/18 03:09:35;;;;;;;13.97;8.63;;;-0.40;96.00;;;;;;4958982;28;20199;-82
2021/03/18 03:12:06;;;;;;;14.60;9.20;;;-0.30;96.80;;;;;;4952023;28;20206;-82
2021/03/18 03:14:34;;;;;;;13.40;9.37;;;-0.30;96.60;;;;;;4921509;28;20756;-83
2021/03/18 03:17:03;;;;;;;13.83;9.17;;;-0.40;96.90;;;;;;4912241;28;20423;-81
2021/03/18 03:19:35;;;;;;;14.47;8.50;;;-0.50;96.90;;;;;;4940841;28;20210;-81
2021/03/18 03:22:03;;;;;;;13.43;9.87;;;-0.40;96.80;;;;;;4935547;29;20355;-83
2021/03/18 03:24:35;;;;;;;14.53;9.47;;;-0.60;98.20;;;;;;4900674;28;20249;-83
2021/03/18 03:27:03;;;;;;;14.47;9.13;;;-0.50;99.80;;;;;;4932587;28;20232;-82
2021/03/18 03:29:31;;;;;;;15.93;9.20;;;-0.50;99.90;;;;;;4930226;28;20701;-81
2021/03/18 03:32:02;;;;;;;14.60;8.40;;;-0.40;99.90;;;;;;4934588;28;20444;-83
2021/03/18 03:34:32;;;;;;;13.40;8.33;;;-0.30;99.90;;;;;;4903026;29;21671;-82
2021/03/18 03:37:00;;;;;;;16.00;9.67;;;-0.20;99.90;;;;;;4915513;28;20247;-82
2021/03/18 03:39:28;;;;;;;14.80;8.97;;;-0.10;99.90;;;;;;4931261;28;20201;-81
2021/03/18 03:41:56;;;;;;;16.10;8.97;;;0.00;99.70;;;;;;4934546;29;20232;-82
2021/03/18 03:44:24;;;;;;;13.53;8.97;;;0.10;99.30;;;;;;4916666;28;20695;-81
2021/03/18 03:46:52;;;;;;;16.70;9.60;;;0.20;98.80;;;;;;4911761;28;20229;-83
2021/03/18 03:49:20;;;;;;;16.53;10.20;;;0.40;98.30;;;;;;4932378;29;20456;-83
2021/03/18 03:51:56;;;;;;;19.57;9.40;;;0.30;97.70;;;;;;4937523;29;20212;-83
2021/03/18 03:54:25;;;;;;;14.67;9.57;;;0.40;98.10;;;;;;4937827;28;20685;-81
2021/03/18 03:57:03;;;;;;;16.37;9.47;;;0.40;97.80;;;;;;4938871;28;20271;-84
2021/03/18 03:59:35;;;;;;;14.73;8.97;;;0.50;97.70;;;;;;4960008;28;20494;-82
2021/03/18 04:02:04;;;;;;;13.73;8.83;;;0.60;97.30;;;;;;4959614;28;20280;-83
2021/03/18 04:04:36;;;;;;;12.23;8.53;;;0.60;97.30;;;;;;4943951;28;20230;-84
2021/03/18 04:07:08;;;;;;;14.83;9.57;;;0.60;97.10;;;;;;4931082;28;20265;-82
2021/03/18 04:09:38;;;;;;;15.27;8.93;;;0.60;96.90;;;;;;4955649;28;20216;-82
2021/03/18 04:12:08;;;;;;;20.27;9.80;;;0.60;96.90;;;;;;4961410;28;20204;-82
2021/03/18 04:14:40;;;;;;;13.93;8.13;;;0.70;96.70;;;;;;4945508;28;21015;-81
2021/03/18 04:17:10;;;;;;;13.10;8.20;;;0.70;96.40;;;;;;4940015;28;20231;-80
2021/03/18 04:19:39;;;;;;;14.30;8.63;;;0.70;96.40;;;;;;4964183;28;20194;-82
2021/03/18 04:22:09;;;;;;;11.80;8.23;;;0.70;96.80;;;;;;4963917;28;20247;-84
2021/03/18 04:24:38;;;;;;;14.07;8.83;;;0.70;96.60;;;;;;4948956;28;20676;-83
2021/03/18 04:27:07;;;;;;;13.23;9.03;;;0.70;96.40;;;;;;4940787;28;20232;-82
2021/03/18 04:29:38;;;;;;;14.40;8.67;;;0.70;96.30;;;;;;4960440;28;20186;-83
2021/03/18 04:32:07;;;;;;;11.97;8.83;;;0.70;96.20;;;;;;4965515;28;20197;-81
2021/03/18 04:34:53;;;;;;;14.10;8.60;;;0.70;96.50;;;;;;4948237;28;20424;-82
2021/03/18 04:37:21;;;;;;;14.90;9.60;;;0.70;97.00;;;;;;4949640;28;20221;-82
2021/03/18 04:39:50;;;;;;;14.47;9.63;;;0.70;97.30;;;;;;4954521;28;20206;-82
2021/03/18 04:42:20;;;;;;;15.40;8.97;;;0.70;97.60;;;;;;4961852;28;20499;-84
2021/03/18 04:44:50;;;;;;;16.17;10.40;;;0.80;97.30;;;;;;4944135;28;20240;-82
2021/03/18 04:47:20;;;;;;;17.53;11.73;;;0.80;97.10;;;;;;4941280;28;20213;-82
2021/03/18 04:49:49;;;;;;;20.13;10.80;;;0.70;97.00;;;;;;4956223;28;20204;-83
2021/03/18 04:52:18;;;;;;;16.03;10.33;;;0.70;97.30;;;;;;4962427;28;20201;-82
2021/03/18 04:54:47;;;;;;;17.77;10.23;;;0.70;97.00;;;;;;4940951;28;20712;-83
2021/03/18 04:57:18;;;;;;;15.93;10.90;;;0.70;97.00;;;;;;4935734;28;20256;-82
2021/03/18 04:59:50;;;;;;;15.43;9.53;;;0.90;97.40;;;;;;4939038;28;20202;-82
2021/03/18 05:02:18;;;;;;;13.10;8.97;;;0.80;97.20;;;;;;4936222;28;20236;-83
2021/03/18 05:04:47;;;;;;;16.70;9.10;;;0.80;96.90;;;;;;4917629;28;20237;-83
2021/03/18 05:07:15;;;;;;;15.50;9.27;;;0.80;96.70;;;;;;4911670;29;20309;-84
2021/03/18 05:09:44;;;;;;;13.87;8.27;;;0.80;96.70;;;;;;4934189;29;20206;-82
2021/03/18 05:12:12;;;;;;;10.13;6.93;;;0.70;96.70;;;;;;4934672;28;20212;-83
2021/03/18 05:14:40;;;;;;;16.57;9.17;;;0.80;96.70;;;;;;4903995;29;20226;-83
2021/03/18 05:17:09;;;;;;;11.53;7.43;;;0.80;96.70;;;;;;4917015;28;20235;-83
2021/03/18 05:19:38;;;;;;;13.20;8.70;;;0.80;97.30;;;;;;4945241;28;20280;-83
2021/03/18 05:22:08;;;;;;;19.13;9.40;;;0.80;97.20;;;;;;4941424;29;20587;-82
2021/03/18 05:24:37;;;;;;;12.60;8.97;;;0.80;97.10;;;;;;4896073;29;20225;-82
2021/03/18 05:27:06;;;;;;;15.10;9.30;;;0.80;97.10;;;;;;4915153;29;20852;-83
2021/03/18 05:29:33;;;;;;;15.17;9.93;;;0.80;97.30;;;;;;4937407;29;20429;-83
2021/03/18 05:32:01;;;;;;;18.87;11.17;;;0.90;96.90;;;;;;4943846;28;20197;-83
2021/03/18 05:34:31;;;;;;;15.27;10.73;;;0.90;96.80;;;;;;4932520;28;21369;-83
2021/03/18 05:37:02;;;;;;;15.37;10.50;;;0.80;96.50;;;;;;4931021;28;20245;-84
2021/03/18 05:39:31;;;;;;;18.47;11.87;;;0.80;96.80;;;;;;4949001;28;20209;-83
2021/03/18 05:41:59;;;;;;;14.10;10.13;;;0.90;97.10;;;;;;4945963;29;20241;-83
2021/03/18 05:44:28;;;;;;;20.30;11.90;;;0.90;96.40;;;;;;4928867;28;20328;-83
2021/03/18 05:46:59;;;;;;;20.50;13.30;;;0.90;96.60;;;;;;4923937;29;20614;-81
2021/03/18 05:49:31;;;;;;;21.17;14.27;;;1.00;96.70;;;;;;4921863;29;20723;-81
2021/03/18 05:52:02;;;;;;;23.43;14.87;;;1.00;96.70;;;;;;4924745;29;20233;-83
2021/03/18 05:54:31;;;;;;;24.27;15.07;;;1.10;96.40;;;;;;4931879;29;20633;-83
2021/03/18 05:57:02;;;;;;;23.27;14.77;;;1.10;96.60;;;;;;4916838;28;20233;-84
2021/03/18 05:59:31;;;;;;;19.87;13.10;;;1.10;96.70;;;;;;4949552;28;20504;-83
2021/03/18 06:01:59;;;;;;;22.07;13.53;;;1.10;96.40;;;;;;4961396;28;20233;-82
2021/03/18 06:04:28;;;;;;;20.27;12.67;;;1.10;96.00;;;;;;4935816;28;20233;-83
2021/03/18 06:06:57;;;;;;;18.13;11.60;;;1.20;96.00;;;;;;4929923;28;20532;-82
2021/03/18 06:09:26;;;;;;;16.53;10.97;;;1.20;96.40;;;;;;4948222;29;20202;-83
2021/03/18 06:11:55;;;;;;;16.53;9.67;;;1.20;95.80;;;;;;4948111;29;20206;-82
2021/03/18 06:14:22;;;;;;;11.90;8.43;;;1.20;95.20;;;;;;4925458;28;20221;-81
2021/03/18 06:16:52;;;;;;;16.00;9.23;;;1.30;94.60;;;;;;4914747;28;20277;-83
2021/03/18 06:19:21;;;;;;;13.17;8.23;;;1.30;94.60;;;;;;4937799;28;20202;-82
2021/03/18 06:21:54;;;;;;;13.73;8.50;;;1.10;94.00;;;;;;4946750;28;20214;-81
2021/03/18 06:24:32;;;;;;;10.50;7.47;;;1.40;93.80;;;;;;4951279;28;20209;-80
2021/03/18 06:27:00;;;;;;;12.87;8.50;;;1.40;92.70;;;;;;4929504;28;20708;-81
2021/03/18 06:29:34;;;;;;;14.87;9.07;;;1.50;93.60;;;;;;4945741;29;20312;-82
2021/03/18 06:32:16;;;;;;;9.33;5.33;;;1.50;93.50;;;;;;4958618;28;20206;-82
2021/03/18 06:34:47;;;;;;;12.33;6.97;;;1.60;92.80;;;;;;4939266;28;20486;-82
2021/03/18 06:37:32;;;;;;;13.10;7.60;;;1.70;93.00;;;;;;4934196;28;20226;-80
2021/03/18 06:40:14;;;;;;;12.23;7.33;;;1.80;92.60;;;;;;4955253;28;20190;-84
2021/03/18 06:42:51;;;;;;;12.37;7.73;;;1.80;92.20;;;;;;4961545;28;20257;-81
2021/03/18 06:45:19;;;;;;;8.73;6.53;;;1.80;91.90;;;;;;4917191;28;20224;-83
2021/03/18 06:47:49;;;;;;;12.03;6.87;;;1.60;91.60;;;;;;4925660;28;20288;-79
2021/03/18 06:50:21;;;;;;;7.77;6.03;;;1.60;91.40;;;;;;4932206;29;20198;-82
2021/03/18 06:52:50;;;;;;;9.67;6.30;;;1.60;91.40;;;;;;4950162;28;20270;-82
2021/03/18 06:55:30;;;;;;;6.90;4.87;;;1.40;91.40;;;;;;4911210;28;20253;-83
2021/03/18 06:58:15;;;;;;;8.83;6.30;;;1.30;92.00;;;;;;4947439;28;20213;-83
2021/03/18 07:00:46;;;;;;;8.73;6.13;;;1.20;91.40;;;;;;4957575;28;20216;-83
2021/03/18 07:03:29;;;;;;;10.77;6.37;;;1.20;91.80;;;;;;4948183;28;20875;-82
2021/03/18 07:06:06;;;;;;;9.43;5.40;;;1.20;91.90;;;;;;4909767;28;20221;-84
2021/03/18 07:08:36;;;;;;;10.63;7.73;;;1.30;91.40;;;;;;4938680;28;20197;-83
2021/03/18 07:11:18;;;;;;;8.10;6.10;;;1.40;91.70;;;;;;4931663;28;20213;-83
2021/03/18 07:13:47;;;;;;;9.07;6.40;;;1.60;91.00;;;;;;4929186;29;20486;-83
2021/03/18 07:16:15;;;;;;;9.97;6.23;;;1.60;90.50;;;;;;4887550;28;20229;-83
2021/03/18 07:18:55;;;;;;;8.40;5.77;;;1.70;90.50;;;;;;4931693;28;20510;-82
2021/03/18 07:21:38;;;;;;;9.50;6.87;;;1.90;89.80;;;;;;4938480;28;20724;-82
2021/03/18 07:24:25;;;;;;;10.13;6.77;;;1.90;88.30;;;;;;4935505;28;20616;-80
2021/03/18 07:26:56;;;;;;;9.27;6.63;;;2.20;87.70;;;;;;4955658;28;20233;-82
2021/03/18 07:29:27;;;;;;;10.83;7.10;;;2.20;86.70;;;;;;4942432;28;20220;-84
2021/03/18 07:31:58;;;;;;;7.87;5.67;;;2.30;87.30;;;;;;4947500;28;20272;-82
2021/03/18 07:34:27;;;;;;;7.13;5.30;;;2.50;85.20;;;;;;4938302;28;20214;-82
2021/03/18 07:37:06;;;;;;;7.20;5.27;;;2.60;84.40;;;;;;4929356;28;20236;-84
2021/03/18 07:39:35;;;;;;;6.23;5.40;;;2.60;83.90;;;;;;4929694;28;20215;-84
2021/03/18 07:42:11;;;;;;;6.47;5.10;;;2.60;84.00;;;;;;4930412;28;20705;-84
2021/03/18 07:44:43;;;;;;;8.57;5.50;;;2.60;83.70;;;;;;4923339;28;20226;-83
2021/03/18 07:47:15;;;;;;;8.67;5.30;;;2.50;83.40;;;;;;4930438;28;20624;-86
2021/03/18 07:49:48;;;;;;;6.30;4.40;;;2.60;83.20;;;;;;4913292;28;20240;-84
2021/03/18 07:52:22;;;;;;;6.57;3.70;;;2.60;82.60;;;;;;4943228;28;20192;-83
2021/03/18 07:54:53;;;;;;;4.07;3.40;;;2.60;81.80;;;;;;4946774;28;20240;-83
2021/03/18 07:57:22;;;;;;;7.10;4.17;;;2.50;81.60;;;;;;4920245;28;20228;-85
2021/03/18 07:59:51;;;;;;;5.63;3.80;;;2.50;81.70;;;;;;4931198;28;20705;-84
2021/03/18 08:02:23;;;;;;;5.00;3.10;;;2.60;81.70;;;;;;4927293;28;20224;-83
2021/03/18 08:04:53;;;;;;;5.90;4.43;;;2.60;80.90;;;;;;4932504;28;20258;-83
2021/03/18 08:07:45;;;;;;;6.83;5.37;;;2.60;81.00;;;;;;4923662;28;20606;-84
2021/03/18 08:10:15;;;;;;;5.10;4.13;;;2.60;81.40;;;;;;4953266;29;20212;-84
2021/03/18 08:12:49;;;;;;;6.87;4.70;;;2.40;81.30;;;;;;4944406;28;20201;-83
2021/03/18 08:15:32;;;;;;;6.20;4.70;;;2.10;81.40;;;;;;4949542;28;20203;-85
2021/03/18 08:18:34;;;;;;;7.13;5.10;;;2.30;80.90;;;;;;4945694;29;20221;-85
2021/03/18 08:21:05;;;;;;;6.53;4.47;;;2.30;80.80;;;;;;4941380;28;20230;-85
2021/03/18 08:23:45;;;;;;;6.30;3.50;;;2.40;81.30;;;;;;4946514;29;20228;-82
2021/03/18 08:26:21;;;;;;;3.10;2.80;;;2.60;80.70;;;;;;4935836;28;20251;-84
2021/03/18 08:28:59;;;;;;;2.67;1.90;;;2.70;79.70;;;;;;4937636;29;20286;-82
2021/03/18 08:31:44;;;;;;;2.00;1.50;;;2.80;79.00;;;;;;4931393;28;20218;-83
2021/03/18 08:34:13;;;;;;;3.30;2.70;;;2.90;78.70;;;;;;4947307;28;20214;-83
2021/03/18 08:36:54;;;;;;;4.43;2.33;;;2.90;78.30;;;;;;4933797;29;20218;-83
2021/03/18 08:39:38;;;;;;;2.00;1.80;;;3.00;78.60;;;;;;4930301;28;20563;-83
2021/03/18 08:42:45;;;;;;;2.93;2.40;;;2.80;78.50;;;;;;4939112;29;20212;-84
2021/03/18 08:45:38;;;;;;;4.43;3.13;;;2.70;78.70;;;;;;4923539;28;20247;-85
2021/03/18 08:48:20;;;;;;;3.30;2.57;;;2.80;78.90;;;;;;4948294;28;20202;-82
2021/03/18 08:51:04;;;;;;;3.37;2.80;;;3.00;78.50;;;;;;4926912;29;20765;-81
2021/03/18 08:53:37;;;;;;;2.43;1.80;;;3.10;78.70;;;;;;4947991;28;20205;-84
2021/03/18 09:20:36;;;;;;;4.60;3.50;;;3.00;78.40;;;;;;4878649;29;20229;-85
2021/03/18 09:23:17;;;;;;;3.77;3.00;;;3.00;78.20;;;;;;4886602;29;20527;-83
2021/03/18 09:28:39;;;;;;;6.13;3.80;;;3.10;77.90;;;;;;4875519;29;20656;-81
2021/03/18 09:31:13;;;;;;;6.57;3.80;;;3.20;78.00;;;;;;4879347;29;20476;-84
2021/03/18 09:33:48;;;;;;;7.03;3.80;;;3.30;78.30;;;;;;4884407;29;20774;-83
2021/03/18 09:36:24;;;;;;;5.30;3.90;;;3.40;78.70;;;;;;4867998;29;20731;-84
2021/03/18 09:39:03;;;;;;;4.20;3.77;;;3.40;78.50;;;;;;4876730;29;20210;-85
2021/03/18 09:41:32;;;;;;;7.40;4.00;;;3.40;78.50;;;;;;4871613;29;20209;-83
2021/03/18 09:44:08;;;;;;;6.97;4.03;;;3.50;78.00;;;;;;4866381;29;20624;-83
2021/03/18 09:46:38;;;;;;;4.70;4.23;;;3.50;78.00;;;;;;4880858;29;20203;-83
2021/03/18 09:49:08;;;;;;;5.90;4.30;;;3.40;77.90;;;;;;4889708;29;20210;-84
2021/03/18 09:51:40;;;;;;;5.80;4.10;;;3.40;78.40;;;;;;4874889;29;20219;-84
2021/03/18 09:54:12;;;;;;;5.90;4.17;;;3.50;78.20;;;;;;4869594;29;20275;-82
2021/03/18 09:56:45;;;;;;;4.50;3.93;;;3.60;78.10;;;;;;4889594;29;20194;-83
2021/03/18 09:59:15;;;;;;;4.60;3.97;;;3.60;78.00;;;;;;4875780;29;21038;-83
2021/03/18 10:01:46;;;;;;;5.50;4.33;;;3.90;77.50;;;;;;4885507;29;20231;-82
2021/03/18 10:04:17;;;;;;;5.40;3.97;;;3.80;77.60;;;;;;4878703;29;20228;-81
2021/03/18 10:06:48;;;;;;;4.10;3.67;;;4.00;77.50;;;;;;4868498;29;20589;-82
2021/03/18 10:09:27;;;;;;;5.63;3.60;;;3.80;77.30;;;;;;4886203;29;20212;-84
2021/03/18 10:12:02;;;;;;;4.93;3.70;;;3.60;77.30;;;;;;4877818;29;20217;-83
2021/03/18 10:14:33;;;;;;;3.87;3.40;;;3.50;77.90;;;;;;4873664;29;20549;-84
2021/03/18 10:17:12;;;;;;;4.20;3.03;;;3.50;78.10;;;;;;4878460;29;20267;-84
2021/03/18 10:19:49;;;;;;;5.03;4.10;;;3.50;77.80;;;;;;4879927;29;20238;-82
2021/03/18 10:22:25;;;;;;;5.33;4.00;;;3.50;78.10;;;;;;4885930;29;20243;-82
2021/03/18 10:25:02;;;;;;;4.53;3.60;;;3.60;78.20;;;;;;4873868;29;20224;-82
2021/03/18 10:27:33;;;;;;;4.83;4.00;;;3.70;77.80;;;;;;4889283;29;20211;-82
2021/03/18 10:30:12;;;;;;;4.13;3.73;;;3.90;77.70;;;;;;4862155;29;20226;-83
2021/03/18 10:32:42;;;;;;;4.73;4.27;;;4.10;77.60;;;;;;4884877;29;20290;-82
2021/03/18 10:35:19;;;;;;;4.83;4.33;;;4.30;77.20;;;;;;4877201;29;20227;-84
2021/03/18 10:37:48;;;;;;;4.07;3.67;;;4.40;76.90;;;;;;4872547;29;20212;-83
2021/03/18 10:40:26;;;;;;;6.43;3.50;;;4.50;76.50;;;;;;4880341;29;20199;-81
2021/03/18 10:42:57;;;;;;;5.50;3.03;;;4.70;76.70;;;;;;4882934;29;20295;-82
2021/03/18 10:45:32;;;;;;;3.77;2.90;;;4.60;76.20;;;;;;4862849;29;20281;-84
2021/03/18 10:48:05;;;;;;;3.57;2.60;;;4.40;75.80;;;;;;4885277;29;20207;-84
2021/03/18 10:50:37;;;;;;;5.43;3.23;;;4.10;76.40;;;;;;4880515;29;20219;-84
2021/03/18 10:53:09;;;;;;;5.40;3.40;;;4.10;76.70;;;;;;4890975;29;20200;-84
2021/03/18 10:55:41;;;;;;;7.30;3.97;;;4.20;77.10;;;;;;4891701;29;20445;-84
2021/03/18 10:58:11;;;;;;;4.53;3.57;;;4.30;77.40;;;;;;4877521;29;20222;-83
2021/03/18 11:00:40;;;;;;;5.07;3.33;;;4.60;77.00;;;;;;4869068;29;20227;-85
2021/03/18 11:03:13;;;;;;;4.30;3.27;;;4.60;77.10;;;;;;4889393;29;20255;-83
2021/03/18 11:05:45;;;;;;;3.40;3.10;;;4.60;77.00;;;;;;4889905;29;20198;-82
2021/03/18 11:08:16;;;;;;;4.27;3.30;;;4.40;76.70;;;;;;4880298;29;20227;-83
2021/03/18 11:10:52;;;;;;;4.23;3.57;;;4.40;76.60;;;;;;4881973;29;20223;-83
2021/03/18 11:13:24;;;;;;;6.20;3.43;;;4.10;76.50;;;;;;4882975;29;20211;-84
2021/03/18 11:16:02;;;;;;;5.73;3.93;;;3.80;77.10;;;;;;4872448;29;20235;-83
2021/03/18 11:18:39;;;;;;;4.30;3.40;;;3.70;77.90;;;;;;4883926;29;20196;-83
2021/03/18 11:21:21;;;;;;;3.27;2.57;;;3.60;78.10;;;;;;4892895;29;20199;-82
2021/03/18 11:23:53;;;;;;;3.50;3.20;;;3.50;78.40;;;;;;4855662;29;20248;-86
2021/03/18 11:26:23;;;;;;;4.53;3.80;;;3.30;78.80;;;;;;4889741;29;20504;-83
2021/03/18 11:29:00;;;;;;;4.20;3.70;;;3.20;79.80;;;;;;4889463;29;20222;-85
2021/03/18 11:31:30;;;;;;;4.60;3.60;;;3.00;80.80;;;;;;4873669;29;20227;-82
2021/03/18 11:34:14;;;;;;;3.80;3.40;;;3.00;81.60;;;;;;4885104;29;20210;-87
2021/03/18 11:36:49;;;;;;;5.63;4.00;;;3.10;81.60;;;;;;4882425;29;20219;-87
2021/03/18 11:39:20;;;;;;;5.67;4.30;;;3.30;81.80;;;;;;4881431;29;20215;-85
2021/03/18 11:41:51;;;;;;;5.50;4.83;;;3.40;81.80;;;;;;4872843;29;20284;-84
2021/03/18 11:44:22;;;;;;;7.07;5.77;;;3.70;80.70;;;;;;4888014;29;20188;-84
2021/03/18 11:46:53;;;;;;;5.90;5.30;;;3.80;80.20;;;;;;4888665;29;20215;-85
2021/03/18 11:49:24;;;;;;;7.10;4.30;;;3.90;79.30;;;;;;4867484;29;20502;-82
2021/03/18 11:51:51;;;;;;;6.20;4.70;;;4.00;79.70;;;;;;4874560;29;20620;-80
2021/03/18 11:54:20;;;;;;;6.07;4.60;;;4.00;79.70;;;;;;4869113;29;20204;-82
2021/03/18 11:56:48;;;;;;;6.17;4.70;;;4.20;79.60;;;;;;4871939;29;20228;-80
2021/03/18 11:59:17;;;;;;;7.17;5.10;;;4.50;79.60;;;;;;4870601;29;20204;-83
2021/03/18 12:01:46;;;;;;;6.37;5.20;;;4.60;79.20;;;;;;4874071;29;20206;-80
2021/03/18 12:04:15;;;;;;;6.43;4.60;;;4.60;78.70;;;;;;4870319;29;20308;-82
2021/03/18 12:07:33;;;;;;;6.73;4.47;;;4.60;78.80;;;;;;4891409;29;20202;-80
2021/03/18 12:10:21;;;;;;;7.33;4.50;;;4.50;79.90;;;;;;4882037;29;20418;-83
2021/03/18 12:12:49;;;;;;;5.90;4.70;;;4.40;81.30;;;;;;4847758;29;20222;-83
2021/03/18 12:15:18;;;;;;;5.40;4.80;;;4.30;81.90;;;;;;4899320;29;20204;-80
2021/03/18 12:17:46;;;;;;;5.50;4.67;;;4.30;82.80;;;;;;4907424;29;20199;-80
2021/03/18 12:20:27;;;;;;;6.80;4.70;;;4.40;82.90;;;;;;4906729;29;20275;-80
2021/03/18 12:22:56;;;;;;;5.63;4.70;;;4.40;83.30;;;;;;4894350;29;20235;-80
2021/03/18 12:25:25;;;;;;;6.57;4.83;;;4.40;83.80;;;;;;4902712;29;20230;-85
2021/03/18 12:27:54;;;;;;;5.80;4.70;;;4.40;83.30;;;;;;4898761;29;20230;-80
2021/03/18 12:30:24;;;;;;;5.30;4.70;;;4.60;83.50;;;;;;4884671;29;20242;-81
2021/03/18 12:32:53;;;;;;;5.30;4.27;;;4.60;82.30;;;;;;4905450;29;20499;-82
2021/03/18 12:35:25;;;;;;;4.57;4.10;;;4.60;82.40;;;;;;4871700;29;20227;-82
2021/03/18 12:37:56;;;;;;;5.07;4.03;;;4.80;82.40;;;;;;4896369;29;20229;-82
2021/03/18 12:40:26;;;;;;;5.03;4.20;;;5.00;81.40;;;;;;4903274;29;20580;-81
2021/03/18 12:42:54;;;;;;;4.97;4.47;;;5.10;81.10;;;;;;4877678;29;20235;-81
2021/03/18 12:45:22;;;;;;;5.23;4.60;;;5.30;80.60;;;;;;4902565;29;20204;-83
2021/03/18 12:47:50;;;;;;;5.43;4.70;;;5.40;80.30;;;;;;4898860;29;20213;-81
2021/03/18 12:50:20;;;;;;;6.13;4.40;;;5.60;79.40;;;;;;4857576;29;20220;-80
2021/03/18 12:53:31;;;;;;;6.50;4.57;;;5.80;79.20;;;;;;4907636;29;20546;-82
2021/03/18 12:56:04;;;;;;;6.80;4.97;;;6.00;78.60;;;;;;4878896;29;20300;-83
2021/03/18 12:58:33;;;;;;;6.30;4.80;;;6.00;77.50;;;;;;4907059;29;20404;-84
2021/03/18 13:01:08;;;;;;;5.40;4.67;;;5.60;77.00;;;;;;4893720;29;20206;-82
2021/03/18 13:03:38;;;;;;;7.37;5.37;;;5.40;77.80;;;;;;4911460;29;20225;-85
2021/03/18 13:06:13;;;;;;;6.70;5.07;;;5.10;78.50;;;;;;4901271;29;20227;-83
2021/03/18 13:08:52;;;;;;;6.90;5.50;;;5.00;78.40;;;;;;4897203;29;20210;-83
2021/03/18 13:11:32;;;;;;;5.73;4.90;;;5.00;78.50;;;;;;4911997;29;20326;-83
2021/03/18 13:14:02;;;;;;;6.70;5.10;;;4.90;78.80;;;;;;4887188;29;20215;-84
2021/03/18 13:16:42;;;;;;;6.03;5.40;;;4.80;78.90;;;;;;5101947;23;20256;-83
2021/03/18 13:19:17;;;;;;;7.07;5.70;;;4.80;78.80;;;;;;4954244;29;20351;-81
2021/03/18 13:22:07;;;;;;;8.40;5.90;;;4.60;79.00;;;;;;5130047;23;20230;-82
2021/03/18 13:27:28;;;;;;;5.70;5.00;;;4.30;79.80;;;;;;4981563;28;20228;-82
2021/03/18 13:30:02;;;;;;;7.60;5.60;;;3.90;80.10;;;;;;4977103;28;20241;-86
2021/03/18 13:32:47;;;;;;;8.07;6.00;;;3.60;81.50;;;;;;4968471;28;20210;-84
2021/03/18 13:35:38;;;;;;;7.30;5.70;;;3.30;83.60;;;;;;4968508;28;20976;-84
2021/03/18 13:38:10;;;;;;;8.00;5.50;;;3.20;84.80;;;;;;4953923;28;20283;-85
2021/03/18 13:40:43;;;;;;;13.80;7.97;;;3.10;85.10;;;;;;4965959;28;20577;-85
2021/03/18 13:43:18;;;;;;;9.53;6.90;;;3.10;86.20;;;;;;4954869;28;20253;-82
2021/03/18 13:46:04;;;;;;;8.23;5.90;;;3.20;86.30;;;;;;4963930;28;20491;-85
2021/03/18 13:48:52;;;;;;;8.63;5.97;;;3.30;86.70;;;;;;4956414;28;20219;-82
2021/03/18 13:51:24;;;;;;;8.77;5.60;;;3.50;86.60;;;;;;4965502;28;20196;-84